Data for 12/25/2012

Time Sea-Level Adjusted Pressure Absolute Pressure Temperature Relative Humidity Dew Point   
(mb) (inHg) (mb) (inHg) (C) (F) (%) (C) (F)
00:05 1021 30.15 850 25.1 -16.1 3.1 86 -17.9 -0.2
00:10 1021 30.15 850 25.1 -16.1 3 86 -17.9 -0.3
00:15 1021 30.15 850 25.1 -16.2 2.9 87 -17.9 -0.2
00:20 1021 30.15 850 25.1 -16 3.1 87 -17.8 -0
00:25 1021 30.15 850 25.1 -15.9 3.3 86 -17.7 0.1
00:30 1021 30.15 850 25.1 -15.8 3.6 85 -17.8 -0
00:35 1021 30.15 850 25.1 -15.8 3.5 85 -17.8 -0.1
00:40 1021 30.15 850 25.1 -15.9 3.5 85 -17.8 -0
00:45 1021 30.15 850 25.1 -15.8 3.5 84 -17.9 -0.2
00:50 1021 30.15 850 25.1 -15.8 3.6 84 -18 -0.3
00:55 1021 30.15 850 25.1 -15.8 3.6 83 -18 -0.4
01:00 1021 30.15 850 25.1 -15.9 3.5 84 -18 -0.5
01:05 1021 30.15 850 25.1 -15.9 3.3 84 -18.1 -0.6
01:10 1021 30.15 850 25.1 -16 3.3 84 -18.1 -0.5
01:15 1021 30.15 850 25.1 -16.1 3.1 84 -18.1 -0.6
01:20 1021 30.15 850 25.1 -16.3 2.7 85 -18.3 -1
01:25 1021 30.15 850 25.1 -16.5 2.3 86 -18.4 -1.1
01:30 1021 30.15 850 25.1 -16.5 2.3 85 -18.4 -1.2
01:35 1021 30.15 850 25.1 -16.6 2.1 86 -18.5 -1.3
01:40 1021 30.15 850 25.1 -16.6 2.1 85 -18.6 -1.5
01:45 1021 30.15 850 25.1 -16.6 2.1 85 -18.6 -1.4
01:50 1021 30.15 850 25.1 -16.8 1.8 86 -18.6 -1.6
01:55 1021 30.15 850 25.1 -16.8 1.7 85 -18.7 -1.7
02:00 1021 30.15 850 25.1 -16.8 1.8 85 -18.7 -1.7
02:05 1021 30.15 850 25.1 -16.7 1.9 85 -18.6 -1.5
02:10 1021 30.15 850 25.1 -16.9 1.7 86 -18.7 -1.6
02:15 1021 30.15 850 25.1 -17 1.3 87 -18.7 -1.7
02:20 1021 30.15 850 25.1 -17 1.5 87 -18.7 -1.7
02:25 1021 30.15 850 25.1 -16.8 1.7 85 -18.8 -1.8
02:30 1021 30.15 850 25.1 -17 1.5 85 -18.9 -1.9
02:35 1021 30.15 850 25.1 -16.9 1.6 85 -18.8 -1.9
02:40 1021 30.15 850 25.1 -16.9 1.5 86 -18.8 -1.8
02:45 1021 30.15 850 25.1 -17.1 1.3 86 -18.9 -2
02:50 1021 30.15 850 25.1 -17.4 0.8 88 -18.9 -2.1
02:55 1021 30.15 850 25.1 -17.5 0.6 88 -19 -2.1
03:00 1021 30.15 850 25.1 -17.6 0.4 86 -19.5 -3
03:05 1021 30.15 850 25.1 -17.9 -0.2 83 -20.1 -4.1
03:10 1021 30.15 851 25.13 -18.2 -0.8 85 -20.2 -4.4
03:15 1021 30.15 850 25.1 -18.5 -1.2 88 -20 -3.9
03:20 1021 30.15 850 25.1 -18.3 -0.9 88 -19.8 -3.7
03:25 1021 30.15 850 25.1 -18.4 -1.2 87 -20.1 -4.2
03:30 1021 30.15 850 25.1 -18.5 -1.2 88 -20 -4
03:35 1021 30.15 850 25.1 -18.3 -0.9 88 -19.8 -3.7
03:40 1021 30.15 850 25.1 -18.2 -0.8 88 -19.8 -3.6
03:45 1021 30.15 850 25.1 -18.1 -0.5 87 -19.8 -3.6
03:50 1021 30.15 850 25.1 -18 -0.5 85 -20 -3.9
03:55 1021 30.15 850 25.1 -18 -0.4 85 -19.9 -3.8
04:00 1021 30.15 850 25.1 -17.9 -0.3 86 -19.7 -3.5
04:05 1021 30.15 850 25.1 -17.8 -0 85 -19.7 -3.5
04:10 1021 30.15 850 25.1 -17.8 0 85 -19.7 -3.5
04:15 1021 30.15 850 25.1 -17.8 0 85 -19.7 -3.5
04:20 1021 30.15 850 25.1 -17.7 0.1 86 -19.5 -3.2
04:25 1021 30.15 850 25.1 -17.6 0.4 86 -19.3 -2.8
04:30 1021 30.15 850 25.1 -17.4 0.7 86 -19.2 -2.6
04:35 1021 30.15 850 25.1 -17.3 0.8 86 -19.1 -2.4
04:40 1021 30.15 850 25.1 -17.2 1 86 -19 -2.2
04:45 1021 30.15 850 25.1 -17.1 1.2 86 -18.9 -2
04:50 1021 30.15 850 25.1 -17 1.4 86 -18.8 -1.8
04:55 1021 30.15 850 25.1 -16.9 1.6 86 -18.8 -1.8
05:00 1021 30.15 850 25.1 -16.9 1.5 86 -18.7 -1.7
05:05 1021 30.15 850 25.1 -16.9 1.6 86 -18.7 -1.7
05:10 1021 30.15 850 25.1 -16.8 1.8 86 -18.6 -1.4
05:15 1021 30.15 850 25.1 -16.7 2 86 -18.5 -1.3
05:20 1021 30.15 850 25.1 -16.6 2.2 86 -18.4 -1.1
05:25 1021 30.15 850 25.1 -16.5 2.3 86 -18.3 -1
05:30 1021 30.15 850 25.1 -16.5 2.3 85 -18.4 -1.1
05:35 1021 30.15 850 25.1 -16.5 2.2 85 -18.4 -1.2
05:40 1021 30.15 850 25.1 -16.6 2.1 86 -18.5 -1.3
05:45 1021 30.15 850 25.1 -16.6 2.1 86 -18.5 -1.2
05:50 1021 30.15 850 25.1 -16.7 2 86 -18.5 -1.3
05:55 1021 30.15 850 25.1 -16.7 1.9 86 -18.6 -1.5
06:00 1021 30.15 850 25.1 -16.7 2 86 -18.5 -1.2
06:05 1021 30.15 850 25.1 -16.5 2.3 85 -18.4 -1.2
06:10 1021 30.15 850 25.1 -16.5 2.3 86 -18.4 -1.1
06:15 1021 30.15 850 25.1 -16.5 2.3 86 -18.4 -1.1
06:20 1021 30.15 850 25.1 -16.4 2.5 85 -18.3 -1
06:25 1021 30.15 850 25.1 -16.4 2.6 85 -18.3 -0.9
06:30 1021 30.15 850 25.1 -16.3 2.6 85 -18.3 -0.9
06:35 1021 30.15 850 25.1 -16.4 2.5 86 -18.2 -0.8
06:40 1021 30.15 850 25.1 -16.4 2.6 85 -18.3 -0.9
06:45 1021 30.15 850 25.1 -16.3 2.6 86 -18.2 -0.7
06:50 1021 30.15 850 25.1 -16.3 2.7 86 -18.2 -0.7
06:55 1021 30.15 850 25.1 -16.3 2.7 85 -18.2 -0.8
07:00 1021 30.15 850 25.1 -16.3 2.7 85 -18.3 -0.9
07:05 1021 30.15 850 25.1 -16.4 2.6 85 -18.3 -1
07:10 1021 30.15 850 25.1 -16.4 2.6 85 -18.3 -0.9
07:15 1021 30.15 850 25.1 -16.4 2.5 85 -18.3 -0.9
07:20 1021 30.15 850 25.1 -16.3 2.7 85 -18.2 -0.7
07:25 1021 30.15 850 25.1 -16.2 2.8 85 -18.2 -0.8
07:30 1021 30.15 850 25.1 -16.3 2.7 85 -18.2 -0.8
07:35 1021 30.15 850 25.1 -16.2 2.8 85 -18.2 -0.8
07:40 1021 30.15 850 25.1 -16.2 2.8 85 -18.3 -0.9
07:45 1021 30.15 850 25.1 -16.2 2.9 84 -18.2 -0.8
07:50 1021 30.15 850 25.1 -16.1 2.9 84 -18.3 -0.9
07:55 1021 30.15 850 25.1 -16.1 3 84 -18.3 -0.9
08:00 1020 30.12 850 25.1 -16.1 3.1 83 -18.4 -1.1
08:05 1020 30.12 850 25.1 -16.1 3 83 -18.3 -1
08:10 1020 30.12 850 25.1 -16 3.2 83 -18.2 -0.8
08:15 1020 30.12 849 25.07 -15.9 3.3 83 -18.2 -0.8
08:20 1020 30.12 849 25.07 -15.9 3.5 83 -18.2 -0.7
08:25 1020 30.12 849 25.07 -15.8 3.6 83 -18.1 -0.5
08:30 1020 30.12 849 25.07 -15.7 3.7 82 -18.1 -0.6
08:35 1020 30.12 849 25.07 -15.6 3.8 82 -18 -0.4
08:40 1020 30.12 849 25.07 -15.6 4 82 -18 -0.3
08:45 1020 30.12 849 25.07 -15.4 4.2 83 -17.7 0.2
08:50 1020 30.12 849 25.07 -15.3 4.5 81 -17.8 -0.1
08:55 1020 30.12 849 25.07 -15.2 4.6 81 -17.8 0
09:00 1020 30.12 849 25.07 -15.1 4.9 82 -17.5 0.6
09:05 1020 30.12 849 25.07 -14.7 5.5 81 -17.3 0.8
09:10 1020 30.12 849 25.07 -14.5 6 81 -17.1 1.2
09:15 1020 30.12 849 25.07 -14.3 6.4 80 -16.9 1.5
09:20 1020 30.12 849 25.07 -14.4 6.1 81 -17 1.4
09:25 1020 30.12 849 25.07 -14.6 5.8 80 -17.3 0.9
09:30 1020 30.12 849 25.07 -14.8 5.4 83 -17.1 1.3
09:35 1020 30.12 849 25.07 -14.5 5.8 81 -17.1 1.1
09:40 1020 30.12 849 25.07 -14.8 5.4 81 -17.3 0.8
09:45 1020 30.12 849 25.07 -14.9 5.2 84 -17.1 1.3
09:50 1020 30.12 849 25.07 -14.7 5.5 82 -17.1 1.2
09:55 1020 30.12 849 25.07 -14.9 5.1 83 -17.3 0.9
10:00 1020 30.12 849 25.07 -15 5 85 -17 1.4
10:05 1020 30.12 849 25.07 -14.8 5.3 83 -17.1 1.1
10:10 1020 30.12 849 25.07 -14.8 5.5 84 -17 1.5
10:15 1020 30.12 849 25.07 -14.4 6.1 81 -16.9 1.6
10:20 1020 30.12 849 25.07 -14.3 6.2 81 -16.9 1.6
10:25 1020 30.12 849 25.07 -14.2 6.4 81 -16.7 1.9
10:30 1020 30.12 849 25.07 -14.3 6.3 81 -16.9 1.7
10:35 1020 30.12 849 25.07 -14.4 6.2 81 -16.9 1.6
10:40 1020 30.12 849 25.07 -14.2 6.5 80 -16.9 1.6
10:45 1020 30.12 849 25.07 -14.2 6.5 79 -17.1 1.3
10:50 1020 30.12 849 25.07 -14.3 6.3 80 -17 1.4
10:55 1020 30.12 849 25.07 -14.1 6.6 80 -16.9 1.6
11:00 1020 30.12 849 25.07 -13.9 6.9 79 -16.8 1.7
11:05 1020 30.12 849 25.07 -13.9 7.1 78 -16.9 1.6
11:10 1020 30.12 849 25.07 -13.8 7.1 77 -17.1 1.3
11:15 1020 30.12 849 25.07 -13.9 6.9 78 -17 1.5
11:20 1020 30.12 849 25.07 -13.8 7.1 78 -16.8 1.7
11:25 1020 30.12 849 25.07 -13.5 7.7 77 -16.8 1.8
11:30 1020 30.12 849 25.07 -13.6 7.5 75 -17.2 1.1
11:35 1020 30.12 849 25.07 -13.7 7.4 75 -17.2 1.1
11:40 1020 30.12 849 25.07 -13.5 7.7 75 -17 1.3
11:45 1020 30.12 849 25.07 -13.2 8.2 74 -17 1.5
11:50 1020 30.12 849 25.07 -13 8.6 73 -17 1.5
11:55 1019 30.09 849 25.07 -13 8.7 75 -16.6 2.2
12:00 1019 30.09 849 25.07 -12.5 9.5 73 -16.5 2.4
12:05 1019 30.09 848 25.04 -12 10.4 71 -16.3 2.7
12:10 1019 30.09 848 25.04 -12.1 10.2 72 -16.3 2.7
12:15 1019 30.09 848 25.04 -12.5 9.6 73 -16.3 2.6
12:20 1019 30.09 848 25.04 -12.2 10.1 72 -16.3 2.7
12:25 1019 30.09 848 25.04 -12.2 10.1 71 -16.4 2.4
12:30 1019 30.09 848 25.04 -11.9 10.5 70 -16.3 2.6
12:35 1019 30.09 848 25.04 -11.7 10.9 70 -16.1 3
12:40 1019 30.09 848 25.04 -11.6 11 70 -16.1 3
12:45 1018 30.06 848 25.04 -11.7 11 69 -16.2 2.8
12:50 1018 30.06 848 25.04 -11.8 10.8 70 -16.2 2.9
12:55 1018 30.06 847 25.01 -11.8 10.8 71 -16.1 3.1
13:00 1018 30.06 847 25.01 -11.8 10.8 71 -16.1 3.1
13:05 1018 30.06 847 25.01 -11.8 10.7 70 -16.3 2.7
13:10 1018 30.06 847 25.01 -10.5 13.2 65 -15.9 3.3
13:15 1018 30.06 847 25.01 -9.9 14.2 63 -15.6 4
13:20 1018 30.06 847 25.01 -9.6 14.6 61 -15.9 3.4
13:25 1018 30.06 847 25.01 -9.5 15 59 -16 3.2
13:30 1018 30.06 847 25.01 -9.3 15.3 60 -15.8 3.6
13:35 1018 30.06 847 25.01 -9.5 15 60 -15.8 3.6
13:40 1017 30.03 847 25.01 -8.8 16.3 58 -15.7 3.8
13:45 1017 30.03 847 25.01 -9.2 15.4 61 -15.5 4.1
13:50 1017 30.03 847 25.01 -9.4 15.2 59 -16 3.1
13:55 1017 30.03 846 24.98 -9.2 15.5 58 -15.9 3.3
14:00 1017 30.03 846 24.98 -8.9 15.9 57 -15.9 3.3
14:05 1017 30.03 846 24.98 -8.5 16.6 57 -15.7 3.8
14:10 1017 30.03 846 24.98 -8.6 16.6 56 -15.9 3.3
14:15 1017 30.03 846 24.98 -8.8 16.2 57 -15.8 3.5
14:20 1017 30.03 846 24.98 -9.4 15.1 58 -16.2 2.8
14:25 1017 30.03 846 24.98 -9.6 14.8 58 -16.5 2.4
14:30 1017 30.03 846 24.98 -10 13.9 61 -16.3 2.7
14:35 1017 30.03 846 24.98 -10.4 13.4 61 -16.4 2.4
14:40 1017 30.03 846 24.98 -10.1 13.8 61 -16.3 2.6
14:45 1017 30.03 846 24.98 -10.2 13.7 62 -16.2 2.9
14:50 1017 30.03 846 24.98 -10.1 13.8 62 -16.1 2.9
14:55 1017 30.03 846 24.98 -10 14.1 60 -16.3 2.7
15:00 1017 30.03 846 24.98 -9.5 15 57 -16.4 2.5
15:05 1016 30 846 24.98 -10 14.1 61 -16.1 3.1
15:10 1016 30 846 24.98 -9.8 14.5 60 -16.2 2.8
15:15 1016 30 845 24.95 -9.5 14.9 59 -16.1 3
15:20 1016 30 845 24.95 -9.6 14.8 60 -16 3.2
15:25 1016 30 845 24.95 -9.6 14.8 60 -16 3.2
15:30 1016 30 845 24.95 -9.6 14.8 60 -16 3.2
15:35 1016 30 845 24.95 -9.9 14.1 62 -15.9 3.3
15:40 1016 30 845 24.95 -9.7 14.5 60 -16.1 3.1
15:45 1016 30 845 24.95 -9.5 14.9 59 -16.1 3
15:50 1016 30 845 24.95 -9.5 14.9 60 -15.8 3.5
15:55 1016 30 845 24.95 -9.6 14.7 61 -15.8 3.6
16:00 1016 30 845 24.95 -9.6 14.8 60 -16 3.2
16:05 1016 30 845 24.95 -9.5 14.9 60 -15.9 3.3
16:10 1016 30 845 24.95 -9.4 15.1 60 -15.9 3.4
16:15 1016 30 845 24.95 -9.5 14.9 61 -15.7 3.7
16:20 1016 30 845 24.95 -9.6 14.8 60 -16 3.2
16:25 1016 30 845 24.95 -9.6 14.8 61 -15.8 3.5
16:30 1015 29.97 845 24.95 -9.8 14.3 62 -15.8 3.5
16:35 1015 29.97 845 24.95 -10.1 13.9 64 -15.7 3.7
16:40 1015 29.97 845 24.95 -10.7 12.7 66 -15.9 3.4
16:45 1015 29.97 845 24.95 -11.4 11.6 68 -16.1 3.1
16:50 1015 29.97 844 24.92 -11.5 11.3 69 -16.2 2.9
16:55 1015 29.97 844 24.92 -11.2 11.9 68 -16 3.2
17:00 1015 29.97 844 24.92 -10.8 12.6 67 -15.8 3.5
17:05 1015 29.97 844 24.92 -11 12.2 69 -15.7 3.8
17:10 1015 29.97 844 24.92 -11.5 11.3 71 -15.8 3.5
17:15 1015 29.97 844 24.92 -11.6 11.2 71 -15.8 3.6
17:20 1015 29.97 844 24.92 -11.7 11 72 -15.7 3.7
17:25 1015 29.97 844 24.92 -11.6 11 71 -15.9 3.3
17:30 1015 29.97 844 24.92 -11.8 10.8 72 -15.8 3.6
17:35 1015 29.97 844 24.92 -12.2 10.1 74 -16 3.2
17:40 1015 29.97 844 24.92 -12.4 9.8 75 -16 3.3
17:45 1015 29.97 844 24.92 -12.4 9.8 75 -16 3.2
17:50 1015 29.97 844 24.92 -12.1 10.1 75 -15.7 3.7
17:55 1015 29.97 844 24.92 -12.2 10.1 74 -15.9 3.4
18:00 1015 29.97 844 24.92 -12.1 10.2 75 -15.8 3.6
18:05 1015 29.97 844 24.92 -12.1 10.3 74 -15.8 3.5
18:10 1014 29.94 844 24.92 -12.3 9.9 75 -15.8 3.5
18:15 1015 29.97 844 24.92 -12.6 9.4 77 -15.9 3.4
18:20 1014 29.94 844 24.92 -12.8 8.9 77 -16 3.2
18:25 1014 29.94 844 24.92 -13 8.7 78 -16 3.2
18:30 1014 29.94 843 24.89 -13 8.7 79 -15.9 3.3
18:35 1014 29.94 843 24.89 -12.9 8.8 79 -15.8 3.6
18:40 1014 29.94 843 24.89 -12.4 9.7 77 -15.6 3.9
18:45 1014 29.94 843 24.89 -12 10.5 78 -15.1 4.9
18:50 1014 29.94 843 24.89 -11.7 11 76 -15.1 4.9
18:55 1014 29.94 843 24.89 -11.7 10.9 74 -15.5 4
19:00 1014 29.94 843 24.89 -12 10.4 75 -15.6 3.9
19:05 1014 29.94 843 24.89 -12.5 9.6 78 -15.5 4
19:10 1014 29.94 843 24.89 -12.7 9.2 80 -15.4 4.2
19:15 1014 29.94 843 24.89 -12.6 9.3 81 -15.3 4.5
19:20 1014 29.94 843 24.89 -12.2 10 77 -15.4 4.2
19:25 1014 29.94 843 24.89 -11.7 10.9 78 -14.8 5.3
19:30 1014 29.94 843 24.89 -11.1 12.1 76 -14.6 5.8
19:35 1014 29.94 843 24.89 -11.5 11.4 78 -14.6 5.8
19:40 1014 29.94 843 24.89 -11.5 11.4 80 -14.2 6.4
19:45 1014 29.94 843 24.89 -11.1 12 81 -13.8 7.1
19:50 1014 29.94 843 24.89 -10.7 12.8 79 -13.6 7.5
19:55 1014 29.94 843 24.89 -10.5 13 79 -13.6 7.6
20:00 1014 29.94 843 24.89 -10.5 13.2 76 -13.9 7
20:05 1014 29.94 843 24.89 -10.4 13.2 78 -13.6 7.5
20:10 1014 29.94 843 24.89 -9.9 14.1 76 -13.4 7.8
20:15 1014 29.94 843 24.89 -9.7 14.6 75 -13.3 8
20:20 1014 29.94 843 24.89 -9.6 14.7 74 -13.4 7.9
20:25 1014 29.94 843 24.89 -9.3 15.2 72 -13.5 7.7
20:30 1013 29.91 843 24.89 -9.3 15.2 73 -13.3 8
20:35 1013 29.91 843 24.89 -9.7 14.5 75 -13.4 8
20:40 1013 29.91 842 24.86 -10.1 13.9 77 -13.4 7.9
20:45 1013 29.91 842 24.86 -9.8 14.3 79 -12.9 8.8
20:50 1013 29.91 842 24.86 -9.6 14.7 79 -12.6 9.3
20:55 1013 29.91 842 24.86 -9.2 15.5 76 -12.7 9.2
21:00 1013 29.91 842 24.86 -8.3 17.1 71 -12.6 9.3
21:05 1013 29.91 842 24.86 -8.2 17.3 70 -12.7 9.2
21:10 1013 29.91 842 24.86 -8.3 17.1 71 -12.7 9.1
21:15 1013 29.91 842 24.86 -8 17.5 71 -12.5 9.5
21:20 1013 29.91 842 24.86 -8 17.7 69 -12.6 9.3
21:25 1013 29.91 842 24.86 -7.6 18.4 66 -12.9 8.8
21:30 1013 29.91 842 24.86 -7.4 18.7 66 -12.7 9.1
21:35 1013 29.91 842 24.86 -9.4 15.1 75 -13.1 8.4
21:40 1013 29.91 842 24.86 -10.6 13 81 -13.3 8
21:45 1013 29.91 842 24.86 -10.5 13 80 -13.4 7.8
21:50 1013 29.91 842 24.86 -11.1 12.1 81 -13.7 7.3
21:55 1013 29.91 842 24.86 -11.4 11.6 81 -13.9 6.9
22:00 1013 29.91 842 24.86 -11.4 11.4 83 -13.8 7.1
22:05 1013 29.91 842 24.86 -11.4 11.5 84 -13.7 7.4
22:10 1013 29.91 842 24.86 -10.5 13.1 78 -13.6 7.5
22:15 1012 29.88 842 24.86 -9.9 14.1 77 -13.2 8.2
22:20 1012 29.88 842 24.86 -9.6 14.7 76 -13.1 8.4
22:25 1012 29.88 841 24.83 -9.5 14.9 76 -13 8.6
22:30 1012 29.88 841 24.83 -9.3 15.3 74 -13.1 8.3
22:35 1012 29.88 841 24.83 -9.3 15.3 74 -13.1 8.4
22:40 1012 29.88 841 24.83 -8.9 16 73 -12.9 8.8
22:45 1012 29.88 841 24.83 -8.5 16.8 71 -12.8 8.9
22:50 1012 29.88 841 24.83 -8.3 17.1 70 -12.8 8.9
22:55 1012 29.88 841 24.83 -7.9 17.7 67 -13 8.7
23:00 1012 29.88 841 24.83 -7.4 18.6 65 -12.9 8.8
23:05 1012 29.88 841 24.83 -6.9 19.6 64 -12.7 9.2
23:10 1012 29.88 841 24.83 -6.8 19.7 64 -12.5 9.5
23:15 1012 29.88 841 24.83 -6.7 19.9 63 -12.6 9.3
23:20 1012 29.88 841 24.83 -6.8 19.8 66 -12.2 10.1
23:25 1012 29.88 841 24.83 -7 19.4 66 -12.3 9.8
23:30 1012 29.88 841 24.83 -7.1 19.2 68 -12.1 10.2
23:35 1012 29.88 841 24.83 -8 17.7 72 -12.2 10
23:40 1012 29.88 841 24.83 -8.5 16.7 75 -12.2 10.1
23:45 1012 29.88 841 24.83 -9 15.8 77 -12.4 9.7
23:50 1012 29.88 841 24.83 -9.4 15.1 79 -12.4 9.8
23:55 1012 29.88 841 24.83 -9.5 14.9 80 -12.4 9.7
24:00 1012 29.88 841 24.83 -9.4 15.1 79 -12.4 9.7